createdAt,value
2023-05-16T00:02:36.428Z,14.46
2023-05-16T00:07:39.251Z,14.37
2023-05-16T00:12:36.151Z,14.19
2023-05-16T00:17:36.398Z,14.60
2023-05-16T00:22:36.016Z,14.65
2023-05-16T00:27:36.088Z,14.71
2023-05-16T00:32:35.912Z,14.62
2023-05-16T00:37:35.867Z,14.72
2023-05-16T00:42:35.728Z,14.78
2023-05-16T00:47:35.773Z,14.64
2023-05-16T00:52:35.585Z,14.62
2023-05-16T00:57:35.587Z,14.56
2023-05-16T01:02:35.492Z,14.44
2023-05-16T01:07:38.465Z,14.16
2023-05-16T01:12:35.364Z,13.89
2023-05-16T01:17:35.352Z,14.13
2023-05-16T01:22:35.265Z,14.17
2023-05-16T01:27:35.258Z,14.34
2023-05-16T01:32:35.132Z,14.14
2023-05-16T01:37:35.057Z,14.13
2023-05-16T01:42:34.962Z,14.09
2023-05-16T01:47:35.018Z,13.94
2023-05-16T01:52:34.835Z,13.83
2023-05-16T01:57:34.776Z,13.63
2023-05-16T02:02:34.689Z,13.52
2023-05-16T02:07:37.666Z,13.56
2023-05-16T02:12:34.525Z,13.37
2023-05-16T02:17:34.565Z,13.59
2023-05-16T02:22:34.417Z,13.51
2023-05-16T02:27:34.524Z,13.51
2023-05-16T02:32:34.362Z,13.52
2023-05-16T02:37:34.309Z,13.33
2023-05-16T02:42:34.185Z,13.27
2023-05-16T02:47:34.243Z,13.32
2023-05-16T02:52:34.032Z,13.25
2023-05-16T02:57:34.023Z,13.32
2023-05-16T03:02:34.018Z,13.17
2023-05-16T03:07:36.870Z,13.12
2023-05-16T03:12:33.783Z,12.77
2023-05-16T03:17:33.787Z,12.95
2023-05-16T03:22:33.669Z,12.99
2023-05-16T03:27:33.614Z,13.09
2023-05-16T03:32:33.603Z,13.18
2023-05-16T03:37:33.721Z,13.33
2023-05-16T03:42:33.392Z,13.43
2023-05-16T03:47:33.436Z,13.40
2023-05-16T03:52:33.280Z,13.36
2023-05-16T03:57:33.222Z,13.09
2023-05-16T04:02:33.238Z,13.29
2023-05-16T04:07:36.107Z,13.11
2023-05-16T04:12:33.007Z,12.81
2023-05-16T04:17:33.001Z,12.69
2023-05-16T04:22:32.870Z,12.82
2023-05-16T04:27:32.857Z,12.81
2023-05-16T04:32:32.858Z,13.20
2023-05-16T04:37:32.802Z,13.04
2023-05-16T04:42:32.708Z,13.52
2023-05-16T04:47:32.922Z,13.80
2023-05-16T04:52:32.516Z,14.04
2023-05-16T04:57:32.494Z,13.40
2023-05-16T05:02:32.427Z,13.56
2023-05-16T05:07:35.318Z,13.70
2023-05-16T05:12:32.205Z,13.25
2023-05-16T05:17:32.326Z,13.65
2023-05-16T05:22:32.097Z,13.07
2023-05-16T05:27:32.034Z,13.55
2023-05-16T05:32:31.975Z,13.58
2023-05-16T05:37:31.913Z,13.55
2023-05-16T05:42:31.809Z,13.11
2023-05-16T05:47:31.751Z,13.41
2023-05-16T05:52:31.642Z,13.40
2023-05-16T05:57:31.798Z,13.29
2023-05-16T06:02:31.558Z,13.32
2023-05-16T06:07:34.509Z,13.11
2023-05-16T06:12:31.418Z,13.29
2023-05-16T06:17:31.413Z,13.22
2023-05-16T06:22:31.250Z,13.69
2023-05-16T06:27:31.202Z,14.14
2023-05-16T06:32:31.193Z,13.94
2023-05-16T06:37:31.116Z,13.63
2023-05-16T06:42:31.046Z,13.51
2023-05-16T06:47:31.084Z,13.09
2023-05-16T06:52:30.884Z,13.03
2023-05-16T06:57:30.838Z,13.62
2023-05-16T07:02:30.864Z,13.25
2023-05-16T07:07:33.886Z,12.89
2023-05-16T07:12:30.626Z,12.92
2023-05-16T07:17:30.594Z,13.46
2023-05-16T07:22:30.468Z,13.61
2023-05-16T07:27:30.447Z,13.63
2023-05-16T07:32:30.392Z,13.87
2023-05-16T07:37:31.198Z,13.54
2023-05-16T07:42:30.173Z,14.13
2023-05-16T07:47:30.176Z,14.34
2023-05-16T07:52:30.039Z,13.89
2023-05-16T07:57:30.037Z,14.17
2023-05-16T08:02:30.076Z,14.43
2023-05-16T08:07:32.919Z,14.12
2023-05-16T08:12:29.763Z,13.70
2023-05-16T08:17:29.858Z,13.99
2023-05-16T08:22:29.689Z,13.79
2023-05-16T08:27:29.636Z,13.92
2023-05-16T08:32:29.650Z,14.37
2023-05-16T08:37:29.473Z,14.27
2023-05-16T08:42:29.418Z,13.96
2023-05-16T08:47:29.383Z,13.73
2023-05-16T08:52:29.307Z,14.07
2023-05-16T08:57:29.533Z,13.89
2023-05-16T09:02:29.122Z,13.81
2023-05-16T09:07:32.068Z,14.28
2023-05-16T09:12:28.993Z,13.87
2023-05-16T09:17:39.097Z,14.21
2023-05-16T09:22:29.943Z,14.50
2023-05-16T09:27:28.789Z,15.08
2023-05-16T09:32:28.815Z,14.84
2023-05-16T09:37:28.726Z,15.13
2023-05-16T09:42:28.625Z,14.78
2023-05-16T09:47:28.556Z,15.41
2023-05-16T09:52:28.538Z,15.26
2023-05-16T09:57:28.388Z,15.01
2023-05-16T10:02:28.415Z,15.19
2023-05-16T10:07:31.320Z,15.30
2023-05-16T10:12:28.187Z,14.61
2023-05-16T10:17:28.205Z,14.67
2023-05-16T10:22:28.049Z,14.72
2023-05-16T10:27:28.239Z,14.90
2023-05-16T10:32:28.120Z,14.60
2023-05-16T10:37:28.078Z,14.84
2023-05-16T10:42:27.823Z,14.38
2023-05-16T10:47:27.814Z,14.20
2023-05-16T10:52:27.656Z,14.64
2023-05-16T10:57:27.738Z,14.56
2023-05-16T11:02:27.648Z,14.61
2023-05-16T11:07:30.534Z,14.65
2023-05-16T11:12:27.398Z,15.38
2023-05-16T11:17:27.574Z,15.85
2023-05-16T11:22:27.255Z,15.15
2023-05-16T11:27:27.243Z,15.74
2023-05-16T11:32:27.143Z,15.33
2023-05-16T11:37:27.223Z,14.80
2023-05-16T11:42:27.009Z,14.24
2023-05-16T11:47:27.077Z,14.35
2023-05-16T11:52:26.832Z,14.74
2023-05-16T11:57:26.837Z,14.31
2023-05-16T12:02:26.809Z,14.56
2023-05-16T12:07:30.498Z,14.25
2023-05-16T12:12:26.613Z,13.95
2023-05-16T12:17:26.623Z,14.93
2023-05-16T12:22:27.312Z,15.15
2023-05-16T12:27:26.430Z,15.30
2023-05-16T12:32:26.460Z,15.89
2023-05-16T12:37:26.328Z,16.63
2023-05-16T12:42:26.259Z,16.31
2023-05-16T12:47:26.365Z,15.79
2023-05-16T12:52:26.126Z,16.07
2023-05-16T12:57:26.058Z,16.63
2023-05-16T13:02:26.015Z,16.90
2023-05-16T13:07:28.954Z,16.18
2023-05-16T13:12:25.804Z,16.15
2023-05-16T13:17:25.843Z,16.58
2023-05-16T13:22:25.641Z,16.45
2023-05-16T13:27:25.663Z,16.44
2023-05-16T13:32:25.564Z,16.23
2023-05-16T13:37:25.506Z,16.74
2023-05-16T13:42:25.586Z,17.50
2023-05-16T13:47:25.367Z,18.02
2023-05-16T13:52:25.261Z,18.77
2023-05-16T13:57:25.303Z,19.10
2023-05-16T14:02:25.116Z,17.46
2023-05-16T14:07:28.091Z,16.67
2023-05-16T14:12:24.985Z,16.30
2023-05-16T14:17:24.980Z,16.49
2023-05-16T14:22:24.884Z,16.20
2023-05-16T14:27:24.844Z,16.85
2023-05-16T14:32:24.859Z,16.42
2023-05-16T14:37:24.768Z,16.48
2023-05-16T14:42:24.669Z,16.60
2023-05-16T14:47:24.647Z,16.68
2023-05-16T14:52:24.469Z,16.58
2023-05-16T14:57:24.568Z,16.62
2023-05-16T15:02:24.363Z,16.86
2023-05-16T15:07:27.309Z,17.29
2023-05-16T15:12:24.184Z,16.14
2023-05-16T15:17:24.202Z,16.58
2023-05-16T15:22:24.090Z,16.55
2023-05-16T15:27:24.045Z,17.14
2023-05-16T15:32:24.022Z,19.11
2023-05-16T15:37:24.971Z,17.87
2023-05-16T15:42:23.860Z,18.15
2023-05-16T15:47:23.834Z,17.36
2023-05-16T15:52:23.722Z,17.35
2023-05-16T15:57:23.692Z,18.06
2023-05-16T16:02:23.629Z,17.08
2023-05-16T16:07:26.660Z,17.73
2023-05-16T16:12:23.449Z,17.40
2023-05-16T16:17:23.483Z,17.73
2023-05-16T16:22:23.322Z,17.30
2023-05-16T16:27:23.278Z,17.00
2023-05-16T16:32:23.251Z,16.85
2023-05-16T16:37:23.167Z,16.73
2023-05-16T16:42:23.068Z,16.89
2023-05-16T16:47:23.082Z,17.17
2023-05-16T16:52:22.951Z,16.92
2023-05-16T16:57:22.866Z,17.00
2023-05-16T17:02:22.807Z,17.10
2023-05-16T17:07:25.730Z,16.98
2023-05-16T17:12:22.629Z,16.96
2023-05-16T17:17:22.720Z,17.46
2023-05-16T17:22:22.556Z,16.98
2023-05-16T17:27:22.521Z,16.74
2023-05-16T17:32:22.369Z,16.65
2023-05-16T17:37:22.350Z,16.48
2023-05-16T17:42:22.242Z,16.41
2023-05-16T17:47:22.207Z,16.44
2023-05-16T17:52:22.134Z,16.15
2023-05-16T17:57:22.084Z,16.01
2023-05-16T18:02:22.000Z,15.85
2023-05-16T18:07:25.095Z,15.46
2023-05-16T18:12:21.865Z,15.15
2023-05-16T18:17:21.811Z,15.02
2023-05-16T18:22:21.706Z,14.57
2023-05-16T18:27:21.759Z,14.01
2023-05-16T18:32:21.622Z,13.37
2023-05-16T18:37:21.637Z,12.89
2023-05-16T18:42:21.458Z,12.52
2023-05-16T18:47:21.508Z,12.27
2023-05-16T18:52:21.349Z,11.89
2023-05-16T18:57:21.304Z,11.68
2023-05-16T19:02:30.211Z,11.56
2023-05-16T19:07:25.232Z,11.07
2023-05-16T19:12:22.813Z,10.43
2023-05-16T19:17:22.026Z,10.58
2023-05-16T19:22:20.952Z,10.78
2023-05-16T19:27:20.920Z,10.96
2023-05-16T19:32:21.631Z,10.83
2023-05-16T19:37:21.410Z,10.76
2023-05-16T19:42:20.675Z,10.43
2023-05-16T19:47:20.839Z,10.10
2023-05-16T19:52:20.536Z,9.78
2023-05-16T19:57:20.633Z,9.45
2023-05-16T20:02:22.375Z,9.13
2023-05-16T20:07:23.399Z,8.79
2023-05-16T20:12:20.272Z,8.51
2023-05-16T20:17:20.315Z,8.63
2023-05-16T20:22:20.134Z,8.55
2023-05-16T20:27:20.135Z,8.50
2023-05-16T20:32:20.069Z,8.44
2023-05-16T20:37:20.009Z,8.45
2023-05-16T20:42:19.891Z,8.39
2023-05-16T20:47:20.302Z,8.36
2023-05-16T20:52:21.870Z,8.37
2023-05-16T20:57:19.720Z,8.15
2023-05-16T21:02:19.640Z,7.90
2023-05-16T21:07:22.562Z,7.90
2023-05-16T21:12:19.473Z,7.78
2023-05-16T21:17:19.504Z,7.62
2023-05-16T21:22:19.350Z,7.47
2023-05-16T21:27:19.317Z,7.44
2023-05-16T21:32:19.209Z,7.53
2023-05-16T21:37:19.194Z,7.58
2023-05-16T21:42:19.096Z,7.62
2023-05-16T21:47:19.087Z,7.53
2023-05-16T21:52:19.000Z,7.49
2023-05-16T21:57:19.062Z,7.66
2023-05-16T22:02:18.836Z,8.00
2023-05-16T22:07:21.822Z,8.10
2023-05-16T22:12:18.742Z,7.96
2023-05-16T22:17:19.512Z,8.10
2023-05-16T22:22:18.630Z,8.12
2023-05-16T22:27:18.608Z,8.25
2023-05-16T22:32:19.312Z,8.47
2023-05-16T22:37:18.425Z,8.71
2023-05-16T22:42:18.362Z,8.88
2023-05-16T22:47:18.304Z,8.84
2023-05-16T22:52:18.200Z,8.76
2023-05-16T22:57:18.168Z,8.51
2023-05-16T23:02:18.089Z,8.62
2023-05-16T23:07:21.088Z,8.42
2023-05-16T23:12:17.973Z,8.14
2023-05-16T23:17:17.933Z,8.29
2023-05-16T23:22:17.831Z,8.02
2023-05-16T23:27:17.772Z,7.89
2023-05-16T23:32:17.680Z,7.66
2023-05-16T23:37:17.653Z,7.75
2023-05-16T23:42:17.579Z,7.92
2023-05-16T23:47:17.534Z,7.94
2023-05-16T23:52:17.420Z,7.55
2023-05-16T23:57:17.409Z,7.29
